Aswan, Egypt
Current Conditions -  °F | °C
As of 5:00 AM on Saturday 25 Oct 2014 (Local Time) from HESN Reporting Station
Clear Clear  
Wind Chill: 70°   Ceiling: Unl
Heat Index: 70°   Visibility: 6mi
Dew Point: 37°   Wind: 9mph
Humidity: 31%   Direction: 360°N
Pressure: 29.97"   Gusts: NA
Location:  24.08°N, 32.92°E
Report Text: HESN 250300Z 36008KT CAVOK 21/03 Q1015 NOSIG
Loading
Personal Weather Stations






























Interactive Weather Map
Tropical Storm Tracking
New forecast layout! Learn more

10-Day Weather Forecast

Advertisements
Track Severe Weather on mobile